Time;durP1;ratioP1;P1;durP2;ratioP2;P2;SDS_P1;SDS_P2;PMS_P1;PMS_P2;Temp;Humidity;BMP_temperature;BMP_pressure;BME280_temperature;BME280_humidity;BME280_pressure;Samples;Min_cycle;Max_cycle;Signal;HPM_P1;HPM_P2
2022/12/18 00:01:24;;;;;;;89.00;29.17;;;-2.20;99.90;;;;;;5033423;28;20274;-75
2022/12/18 00:03:51;;;;;;;73.50;27.60;;;-2.20;99.90;;;;;;5033764;28;20199;-76
2022/12/18 00:06:18;;;;;;;90.20;30.83;;;-2.20;99.90;;;;;;5049351;28;20256;-75
2022/12/18 00:08:44;;;;;;;82.70;29.87;;;-2.20;99.90;;;;;;5044780;28;20172;-82
2022/12/18 00:11:16;;;;;;;79.90;27.30;;;-2.20;99.90;;;;;;5028775;28;20179;-76
2022/12/18 00:13:43;;;;;;;82.83;26.27;;;-2.20;99.90;;;;;;5029319;28;20187;-76
2022/12/18 00:16:14;;;;;;;44.27;15.00;;;-2.20;99.90;;;;;;5033496;28;20184;-77
2022/12/18 00:18:41;;;;;;;92.50;29.07;;;-2.20;99.90;;;;;;5033165;28;20203;-75
2022/12/18 00:21:09;;;;;;;78.10;29.17;;;-2.20;99.90;;;;;;5033006;28;20180;-75
2022/12/18 00:23:36;;;;;;;89.90;30.00;;;-2.20;99.90;;;;;;5033953;28;20219;-75
2022/12/18 00:26:11;;;;;;;62.70;23.43;;;-2.20;99.90;;;;;;5029145;28;20213;-76
2022/12/18 00:28:37;;;;;;;72.47;24.33;;;-2.20;99.90;;;;;;5013956;28;20208;-75
2022/12/18 00:31:04;;;;;;;79.50;26.67;;;-2.20;99.90;;;;;;5045914;28;20586;-75
2022/12/18 00:33:30;;;;;;;83.90;24.50;;;-2.20;99.90;;;;;;5032138;28;20234;-76
2022/12/18 00:36:01;;;;;;;88.67;29.73;;;-2.20;99.90;;;;;;5029306;28;20180;-76
2022/12/18 00:38:27;;;;;;;91.60;29.20;;;-2.20;99.90;;;;;;5030521;28;20214;-75
2022/12/18 00:40:53;;;;;;;86.40;29.50;;;-2.20;99.90;;;;;;5029204;28;20215;-77
2022/12/18 00:43:18;;;;;;;95.77;32.83;;;-2.20;99.90;;;;;;5047115;28;20212;-75
2022/12/18 00:45:45;;;;;;;84.20;30.27;;;-2.20;99.90;;;;;;5028522;28;20188;-75
2022/12/18 00:48:10;;;;;;;85.37;28.47;;;-2.20;99.90;;;;;;5026784;28;20232;-75
2022/12/18 00:50:36;;;;;;;76.97;27.40;;;-2.20;99.90;;;;;;5027243;28;20192;-75
2022/12/18 00:53:02;;;;;;;88.50;29.33;;;-2.20;99.90;;;;;;5032047;28;20208;-75
2022/12/18 00:55:28;;;;;;;90.80;29.13;;;-2.20;99.90;;;;;;5032754;28;20198;-75
2022/12/18 00:57:53;;;;;;;79.37;25.83;;;-2.20;99.90;;;;;;5048403;28;20584;-84
2022/12/18 01:00:19;;;;;;;79.40;27.67;;;-2.10;99.90;;;;;;5031340;28;20184;-75
2022/12/18 01:02:45;;;;;;;88.00;27.63;;;-2.20;99.90;;;;;;5047824;28;20246;-74
2022/12/18 01:05:12;;;;;;;79.47;26.33;;;-2.20;99.90;;;;;;5038699;28;20310;-80
2022/12/18 01:07:38;;;;;;;84.80;28.47;;;-2.20;99.90;;;;;;5062613;28;20230;-76
2022/12/18 01:10:05;;;;;;;83.30;27.97;;;-2.20;99.90;;;;;;5028711;28;20189;-80
2022/12/18 01:12:30;;;;;;;70.03;25.87;;;-2.30;99.90;;;;;;5043336;28;20731;-76
2022/12/18 01:14:56;;;;;;;75.07;25.47;;;-2.30;99.90;;;;;;5031800;28;20176;-76
2022/12/18 01:17:22;;;;;;;68.83;24.37;;;-2.30;99.90;;;;;;5031669;28;20180;-76
2022/12/18 01:19:48;;;;;;;72.03;25.20;;;-2.30;99.90;;;;;;5024107;28;20270;-78
2022/12/18 01:22:14;;;;;;;84.10;28.37;;;-2.40;99.90;;;;;;5062127;28;20565;-76
2022/12/18 01:24:40;;;;;;;86.83;29.43;;;-2.40;99.90;;;;;;5030964;28;20226;-76
2022/12/18 01:27:06;;;;;;;80.97;28.33;;;-2.40;99.90;;;;;;5020314;28;20190;-76
2022/12/18 01:29:31;;;;;;;74.53;26.83;;;-2.40;99.90;;;;;;5017643;28;20567;-76
2022/12/18 01:31:57;;;;;;;89.00;29.47;;;-2.40;99.90;;;;;;5030987;28;20255;-76
2022/12/18 01:34:23;;;;;;;78.00;26.77;;;-2.40;99.90;;;;;;5031998;28;20184;-76
2022/12/18 01:36:51;;;;;;;94.70;28.47;;;-2.40;99.90;;;;;;5030183;28;20187;-84
2022/12/18 01:39:18;;;;;;;82.13;28.03;;;-2.40;99.90;;;;;;5029647;28;20188;-76
2022/12/18 01:42:04;;;;;;;75.13;27.53;;;-2.50;99.90;;;;;;5027185;28;20237;-76
2022/12/18 01:44:57;;;;;;;79.40;24.80;;;-2.50;99.90;;;;;;5015414;28;20302;-76
2022/12/18 01:47:38;;;;;;;77.13;26.40;;;-2.50;99.90;;;;;;5031836;28;20211;-76
2022/12/18 01:50:21;;;;;;;76.57;26.87;;;-2.50;99.90;;;;;;5031849;28;20223;-76
2022/12/18 01:52:59;;;;;;;73.70;24.97;;;-2.60;99.90;;;;;;5033163;28;20164;-76
2022/12/18 01:55:28;;;;;;;80.87;27.80;;;-2.60;99.90;;;;;;5027006;28;20184;-76
2022/12/18 01:57:57;;;;;;;74.10;26.53;;;-2.60;99.90;;;;;;5040077;28;20310;-80
2022/12/18 02:00:24;;;;;;;68.40;25.57;;;-2.60;99.90;;;;;;5025541;28;20176;-75
2022/12/18 02:02:50;;;;;;;92.27;28.70;;;-2.60;99.90;;;;;;5032165;28;20180;-76
2022/12/18 02:05:39;;;;;;;82.00;27.23;;;-2.60;99.90;;;;;;5041015;28;20207;-76
2022/12/18 02:08:20;;;;;;;81.30;27.30;;;-2.60;99.90;;;;;;5072914;28;20534;-77
2022/12/18 02:11:08;;;;;;;75.93;25.57;;;-2.70;99.90;;;;;;5028480;28;20172;-75
2022/12/18 02:13:57;;;;;;;78.20;26.87;;;-2.70;99.90;;;;;;5036902;28;20211;-76
2022/12/18 02:16:32;;;;;;;77.93;25.40;;;-2.70;99.90;;;;;;5034671;28;20204;-76
2022/12/18 02:19:04;;;;;;;75.87;26.87;;;-2.80;99.90;;;;;;5044177;28;20180;-80
2022/12/18 02:22:15;;;;;;;82.90;28.23;;;-2.80;99.90;;;;;;5030213;28;20202;-76
2022/12/18 02:24:56;;;;;;;88.33;28.43;;;-2.80;99.90;;;;;;5032844;28;20314;-76
2022/12/18 02:27:22;;;;;;;82.33;28.90;;;-2.80;99.90;;;;;;5036383;28;20195;-77
2022/12/18 02:29:51;;;;;;;86.97;29.60;;;-2.80;99.90;;;;;;5033197;28;20580;-75
2022/12/18 02:32:24;;;;;;;92.03;30.13;;;-2.90;99.90;;;;;;5035162;28;20184;-76
2022/12/18 02:34:52;;;;;;;81.57;27.90;;;-2.90;99.90;;;;;;5066801;28;20171;-76
2022/12/18 02:37:20;;;;;;;101.73;35.63;;;-3.00;99.90;;;;;;5051579;28;20184;-76
2022/12/18 02:39:50;;;;;;;87.90;28.67;;;-2.90;99.90;;;;;;5046358;28;20225;-76
2022/12/18 02:42:18;;;;;;;80.87;26.63;;;-3.00;99.90;;;;;;5034481;28;20184;-74
2022/12/18 02:44:50;;;;;;;92.90;30.37;;;-3.00;99.90;;;;;;5068645;28;20208;-76
2022/12/18 02:47:24;;;;;;;91.67;29.00;;;-3.00;99.90;;;;;;5036312;28;20168;-76
2022/12/18 02:50:14;;;;;;;83.57;29.17;;;-3.10;99.90;;;;;;5046997;28;20699;-76
2022/12/18 02:52:50;;;;;;;82.23;26.57;;;-3.10;99.90;;;;;;5035610;28;20184;-76
2022/12/18 02:55:38;;;;;;;90.50;27.23;;;-3.10;99.90;;;;;;5049781;28;20191;-76
2022/12/18 02:58:38;;;;;;;85.13;26.47;;;-3.10;99.90;;;;;;5067310;28;20172;-76
2022/12/18 03:01:14;;;;;;;79.87;29.10;;;-3.10;99.90;;;;;;5046430;28;20184;-77
2022/12/18 03:03:47;;;;;;;84.47;29.10;;;-3.10;99.90;;;;;;5059180;28;20207;-76
2022/12/18 03:06:39;;;;;;;92.17;28.83;;;-3.10;99.90;;;;;;5033730;28;20759;-76
2022/12/18 03:09:10;;;;;;;80.17;25.73;;;-3.10;99.90;;;;;;5034954;28;20181;-75
2022/12/18 03:14:29;;;;;;;72.20;22.80;;;-3.20;99.90;;;;;;5063677;28;20191;-76
2022/12/18 03:17:00;;;;;;;91.73;29.27;;;-3.20;99.90;;;;;;5032973;28;20191;-75
2022/12/18 03:19:29;;;;;;;92.43;28.63;;;-3.30;99.90;;;;;;5032822;28;20191;-75
2022/12/18 03:22:02;;;;;;;73.57;24.13;;;-3.30;99.90;;;;;;5038284;28;20624;-75
2022/12/18 03:24:34;;;;;;;41.70;13.73;;;-3.30;99.90;;;;;;5035600;28;20208;-75
2022/12/18 03:27:05;;;;;;;91.17;26.70;;;-3.30;99.90;;;;;;5049516;28;20542;-75
2022/12/18 03:30:07;;;;;;;78.27;27.97;;;-3.30;99.90;;;;;;5033509;28;20254;-75
2022/12/18 03:32:45;;;;;;;82.37;26.93;;;-3.30;99.90;;;;;;5049845;28;20176;-77
2022/12/18 03:35:14;;;;;;;97.73;29.13;;;-3.30;99.90;;;;;;5050047;28;20612;-76
2022/12/18 03:37:44;;;;;;;81.13;26.60;;;-3.30;99.90;;;;;;5066761;28;20216;-76
2022/12/18 03:40:10;;;;;;;75.70;24.37;;;-3.30;99.90;;;;;;5048284;28;20667;-76
2022/12/18 03:42:56;;;;;;;88.03;27.87;;;-3.30;99.90;;;;;;5044675;28;20211;-76
2022/12/18 03:45:37;;;;;;;86.70;29.13;;;-3.40;99.90;;;;;;5043629;28;20211;-76
2022/12/18 03:48:18;;;;;;;86.10;26.77;;;-3.40;99.90;;;;;;5032827;28;20190;-76
2022/12/18 03:50:50;;;;;;;63.60;23.60;;;-3.40;99.90;;;;;;5034206;28;20189;-76
2022/12/18 03:53:46;;;;;;;82.60;27.37;;;-3.40;99.90;;;;;;5043185;28;20184;-76
2022/12/18 03:56:15;;;;;;;74.17;23.80;;;-3.50;99.90;;;;;;5033001;28;20226;-76
2022/12/18 03:58:42;;;;;;;85.60;27.13;;;-3.40;99.90;;;;;;5049980;28;20674;-75
2022/12/18 04:01:25;;;;;;;77.23;24.13;;;-3.40;99.90;;;;;;5049748;28;20211;-76
2022/12/18 04:03:52;;;;;;;78.57;26.50;;;-3.40;99.90;;;;;;5028961;28;20546;-76
2022/12/18 04:06:19;;;;;;;83.20;28.47;;;-3.40;99.90;;;;;;5048704;28;20215;-76
2022/12/18 04:08:46;;;;;;;99.57;36.47;;;-3.40;99.90;;;;;;5049714;28;20192;-75
2022/12/18 04:11:15;;;;;;;70.53;22.43;;;-3.40;99.90;;;;;;5048407;28;20195;-77
2022/12/18 04:13:42;;;;;;;84.27;25.47;;;-3.40;99.90;;;;;;5036352;28;20211;-75
2022/12/18 04:16:15;;;;;;;79.20;23.60;;;-3.40;99.90;;;;;;5049416;28;20279;-75
2022/12/18 04:18:43;;;;;;;82.83;27.47;;;-3.50;99.90;;;;;;5047051;28;20740;-76
2022/12/18 04:21:10;;;;;;;87.17;28.40;;;-3.50;99.90;;;;;;5049120;28;20532;-76
2022/12/18 04:23:36;;;;;;;80.63;27.37;;;-3.50;99.90;;;;;;5036731;28;20207;-75
2022/12/18 04:26:02;;;;;;;88.77;29.03;;;-3.50;99.90;;;;;;5016748;28;20254;-75
2022/12/18 04:28:50;;;;;;;98.23;28.90;;;-3.50;99.90;;;;;;5013293;28;20187;-76
2022/12/18 04:31:16;;;;;;;84.03;28.00;;;-3.50;99.90;;;;;;5064031;28;20267;-75
2022/12/18 04:33:42;;;;;;;89.30;26.97;;;-3.50;99.90;;;;;;5033645;28;20176;-75
2022/12/18 04:36:09;;;;;;;82.97;27.57;;;-3.50;99.90;;;;;;5032299;28;20176;-76
2022/12/18 04:38:35;;;;;;;78.10;26.30;;;-3.50;99.90;;;;;;5040042;28;20184;-74
2022/12/18 04:41:06;;;;;;;82.87;27.43;;;-3.50;99.90;;;;;;5048592;28;20257;-76
2022/12/18 04:43:33;;;;;;;75.17;26.33;;;-3.50;99.90;;;;;;5045120;28;20216;-75
2022/12/18 04:46:07;;;;;;;80.63;24.27;;;-3.50;99.90;;;;;;5063180;28;20184;-75
2022/12/18 04:48:34;;;;;;;84.03;26.70;;;-3.50;99.90;;;;;;5033157;28;20251;-75
2022/12/18 04:51:01;;;;;;;79.47;25.60;;;-3.50;99.90;;;;;;5033403;28;20183;-75
2022/12/18 04:53:27;;;;;;;91.00;30.07;;;-3.50;99.90;;;;;;5048960;28;20191;-76
2022/12/18 04:56:25;;;;;;;83.63;26.13;;;-3.60;99.90;;;;;;5061734;28;20179;-76
2022/12/18 04:58:51;;;;;;;81.63;28.07;;;-3.60;99.90;;;;;;5015797;28;20541;-74
2022/12/18 05:01:18;;;;;;;84.30;27.80;;;-3.60;99.90;;;;;;5033096;28;20186;-77
2022/12/18 05:03:44;;;;;;;71.03;25.07;;;-3.60;99.90;;;;;;5033485;28;20306;-76
2022/12/18 05:06:10;;;;;;;82.17;26.80;;;-3.60;99.90;;;;;;5028358;28;20276;-75
2022/12/18 05:08:36;;;;;;;93.10;29.40;;;-3.60;99.90;;;;;;5035111;28;20187;-74
2022/12/18 05:11:16;;;;;;;71.47;25.97;;;-3.70;99.90;;;;;;5033044;28;20194;-76
2022/12/18 05:13:44;;;;;;;72.00;23.23;;;-3.60;99.90;;;;;;5032519;28;20168;-74
2022/12/18 05:16:10;;;;;;;81.83;25.70;;;-3.70;99.90;;;;;;5028995;28;20184;-75
2022/12/18 05:18:36;;;;;;;85.40;26.20;;;-3.70;99.90;;;;;;5032132;28;20195;-74
2022/12/18 05:21:02;;;;;;;63.57;20.23;;;-3.70;99.90;;;;;;5030844;28;20188;-74
2022/12/18 05:23:28;;;;;;;50.73;17.93;;;-3.70;99.90;;;;;;5032839;28;20222;-74
2022/12/18 05:25:59;;;;;;;83.20;26.80;;;-3.70;99.90;;;;;;5031406;28;20619;-79
2022/12/18 05:28:27;;;;;;;78.03;26.70;;;-3.70;99.90;;;;;;5027662;28;20184;-75
2022/12/18 05:30:55;;;;;;;76.27;24.13;;;-3.70;99.90;;;;;;5031131;28;20180;-80
2022/12/18 05:33:22;;;;;;;83.93;28.57;;;-3.80;99.90;;;;;;5013049;28;20226;-76
2022/12/18 05:35:56;;;;;;;73.70;25.43;;;-3.70;99.90;;;;;;5027592;28;20222;-76
2022/12/18 05:38:23;;;;;;;76.53;25.83;;;-3.80;99.90;;;;;;5029868;28;20184;-76
2022/12/18 05:40:49;;;;;;;74.73;22.73;;;-3.80;99.90;;;;;;5046091;28;20239;-79
2022/12/18 05:43:15;;;;;;;71.53;28.57;;;-3.80;99.90;;;;;;5036300;28;20188;-75
2022/12/18 05:45:42;;;;;;;61.57;23.90;;;-3.80;99.90;;;;;;5036630;28;20180;-75
2022/12/18 05:48:08;;;;;;;77.13;24.37;;;-3.80;99.90;;;;;;5035008;28;20624;-75
2022/12/18 05:50:40;;;;;;;72.33;27.13;;;-3.80;99.90;;;;;;5035838;28;20717;-75
2022/12/18 05:53:06;;;;;;;71.43;24.70;;;-3.80;99.90;;;;;;5036561;28;20209;-75
2022/12/18 05:55:36;;;;;;;68.57;23.33;;;-3.80;99.90;;;;;;5036235;28;20267;-75
2022/12/18 05:58:03;;;;;;;47.10;15.37;;;-3.80;99.90;;;;;;5034832;28;20317;-75
2022/12/18 06:00:31;;;;;;;73.10;22.83;;;-3.80;99.90;;;;;;5033284;28;20188;-74
2022/12/18 06:02:58;;;;;;;74.37;23.40;;;-3.80;99.90;;;;;;5036821;28;20975;-75
2022/12/18 06:05:24;;;;;;;60.63;20.23;;;-3.80;99.90;;;;;;5044444;28;20585;-75
2022/12/18 06:07:50;;;;;;;65.17;23.13;;;-3.80;99.90;;;;;;5054259;28;20205;-81
2022/12/18 06:10:16;;;;;;;56.47;21.07;;;-3.80;99.90;;;;;;5031225;28;20192;-74
2022/12/18 06:12:42;;;;;;;62.77;22.53;;;-3.80;99.90;;;;;;5034163;28;20254;-74
2022/12/18 06:15:08;;;;;;;66.30;23.83;;;-3.80;99.90;;;;;;5027538;28;20644;-80
2022/12/18 06:17:34;;;;;;;58.10;21.90;;;-3.80;99.90;;;;;;5037244;28;20571;-75
2022/12/18 06:20:01;;;;;;;70.23;23.70;;;-3.90;99.90;;;;;;5023725;28;20179;-78
2022/12/18 06:22:27;;;;;;;52.20;19.33;;;-3.90;99.90;;;;;;5020830;28;20288;-75
2022/12/18 06:24:53;;;;;;;63.37;22.30;;;-3.80;99.90;;;;;;5042618;28;20239;-75
2022/12/18 06:27:18;;;;;;;59.67;18.23;;;-3.90;99.90;;;;;;5033996;28;20211;-76
2022/12/18 06:29:44;;;;;;;63.70;22.70;;;-3.90;99.90;;;;;;5034875;28;20183;-74
2022/12/18 06:32:10;;;;;;;60.63;21.80;;;-3.90;99.90;;;;;;5035540;28;20190;-75
2022/12/18 06:34:39;;;;;;;60.80;22.30;;;-3.90;99.90;;;;;;5029415;28;20271;-74
2022/12/18 06:37:05;;;;;;;60.27;21.80;;;-3.90;99.90;;;;;;5037486;28;20175;-74
2022/12/18 06:39:31;;;;;;;62.87;22.00;;;-3.90;99.90;;;;;;5043406;28;20210;-78
2022/12/18 06:41:56;;;;;;;65.17;28.13;;;-4.00;99.90;;;;;;5033153;28;20208;-79
2022/12/18 06:44:22;;;;;;;61.47;23.80;;;-4.00;99.90;;;;;;5043183;28;20350;-74
2022/12/18 06:46:48;;;;;;;64.27;25.10;;;-4.00;99.90;;;;;;5015607;28;20192;-75
2022/12/18 06:49:15;;;;;;;52.87;18.80;;;-4.00;99.90;;;;;;5017181;28;20220;-75
2022/12/18 06:51:42;;;;;;;52.93;20.93;;;-4.00;99.90;;;;;;5032980;28;20203;-78
2022/12/18 06:54:08;;;;;;;46.40;20.07;;;-4.00;99.90;;;;;;5028284;28;20640;-74
2022/12/18 06:56:34;;;;;;;47.03;19.33;;;-4.00;99.90;;;;;;5054747;28;20186;-75
2022/12/18 06:59:00;;;;;;;46.27;19.10;;;-4.00;99.90;;;;;;5049872;28;20184;-81
2022/12/18 07:01:26;;;;;;;47.10;17.47;;;-4.00;99.90;;;;;;5035586;28;20180;-78
2022/12/18 07:03:56;;;;;;;57.00;21.77;;;-4.00;99.90;;;;;;5033765;28;20687;-75
2022/12/18 07:06:24;;;;;;;46.93;18.27;;;-4.00;99.90;;;;;;5044928;28;20271;-75
2022/12/18 07:08:51;;;;;;;55.50;21.60;;;-4.10;99.90;;;;;;5035161;28;20184;-74
2022/12/18 07:11:17;;;;;;;48.70;18.43;;;-4.00;99.90;;;;;;5015539;28;20263;-74
2022/12/18 07:13:44;;;;;;;47.03;18.77;;;-4.00;99.90;;;;;;5037797;28;20191;-76
2022/12/18 07:16:13;;;;;;;49.07;18.27;;;-4.00;99.90;;;;;;5045366;28;20191;-75
2022/12/18 07:18:39;;;;;;;43.83;18.53;;;-4.00;99.90;;;;;;5047098;28;20223;-75
2022/12/18 07:21:06;;;;;;;46.03;19.10;;;-4.00;99.90;;;;;;5032210;28;20227;-80
2022/12/18 07:23:34;;;;;;;45.67;19.07;;;-4.00;99.90;;;;;;5015757;28;20212;-79
2022/12/18 07:26:20;;;;;;;46.57;19.20;;;-4.00;99.90;;;;;;5030971;28;20275;-75
2022/12/18 07:28:46;;;;;;;46.73;17.03;;;-4.00;99.90;;;;;;5035326;28;20215;-75
2022/12/18 07:31:16;;;;;;;54.70;20.67;;;-4.00;99.90;;;;;;5026412;28;20187;-74
2022/12/18 07:33:42;;;;;;;38.27;17.70;;;-4.00;99.90;;;;;;5034733;28;20180;-74
2022/12/18 07:36:09;;;;;;;46.47;17.63;;;-3.90;99.90;;;;;;5033440;28;20195;-74
2022/12/18 07:38:35;;;;;;;36.90;15.00;;;-3.90;99.90;;;;;;5034509;28;20209;-74
2022/12/18 07:41:01;;;;;;;43.93;18.00;;;-3.90;99.90;;;;;;5028322;28;20663;-75
2022/12/18 07:43:27;;;;;;;39.87;16.43;;;-3.90;99.90;;;;;;5034251;28;20271;-76
2022/12/18 07:45:53;;;;;;;46.93;18.03;;;-3.90;99.90;;;;;;5033645;28;20325;-75
2022/12/18 07:48:18;;;;;;;45.10;20.03;;;-3.90;99.90;;;;;;5034691;28;20271;-76
2022/12/18 07:50:44;;;;;;;45.13;16.73;;;-3.90;99.90;;;;;;5064423;28;20228;-74
2022/12/18 07:53:10;;;;;;;42.53;17.43;;;-3.90;99.90;;;;;;5050016;28;20210;-75
2022/12/18 07:55:36;;;;;;;43.10;16.60;;;-3.90;99.90;;;;;;5032195;28;20214;-75
2022/12/18 07:58:02;;;;;;;41.23;15.27;;;-3.90;99.90;;;;;;5035031;28;20171;-75
2022/12/18 08:00:28;;;;;;;43.23;16.93;;;-3.90;99.90;;;;;;5030993;28;20547;-76
2022/12/18 08:02:54;;;;;;;38.90;17.57;;;-3.90;99.90;;;;;;5031511;28;20274;-76
2022/12/18 08:05:20;;;;;;;46.87;16.93;;;-3.80;99.90;;;;;;5036643;28;20212;-76
2022/12/18 08:07:46;;;;;;;37.80;16.63;;;-3.90;99.90;;;;;;5034074;28;20584;-76
2022/12/18 08:10:12;;;;;;;44.80;18.10;;;-3.90;99.90;;;;;;5035113;28;20267;-76
2022/12/18 08:12:38;;;;;;;48.77;18.60;;;-3.90;99.90;;;;;;5033413;28;20716;-76
2022/12/18 08:15:05;;;;;;;43.23;16.83;;;-3.90;99.90;;;;;;5032510;28;20180;-76
2022/12/18 08:17:31;;;;;;;32.53;12.90;;;-3.90;99.90;;;;;;5034049;28;20179;-76
2022/12/18 08:19:56;;;;;;;46.27;17.90;;;-3.90;99.90;;;;;;5033275;28;20190;-76
2022/12/18 08:22:22;;;;;;;47.40;18.97;;;-3.90;99.90;;;;;;5033146;28;20192;-75
2022/12/18 08:24:48;;;;;;;42.10;17.47;;;-4.00;99.90;;;;;;5030767;28;20246;-76
2022/12/18 08:27:13;;;;;;;46.27;18.13;;;-4.00;99.90;;;;;;5035624;28;20632;-76
2022/12/18 08:29:39;;;;;;;43.77;17.60;;;-4.00;99.90;;;;;;5033335;28;20239;-75
2022/12/18 08:32:05;;;;;;;37.43;16.67;;;-4.00;99.90;;;;;;5034438;28;20195;-75
2022/12/18 08:34:30;;;;;;;41.90;17.40;;;-4.00;99.90;;;;;;5048646;28;20531;-75
2022/12/18 08:36:56;;;;;;;44.20;17.43;;;-4.00;99.90;;;;;;5033901;28;20274;-75
2022/12/18 08:39:22;;;;;;;48.97;22.00;;;-4.10;99.90;;;;;;5033749;28;20612;-78
2022/12/18 08:44:37;;;;;;;39.83;20.70;;;-4.10;99.90;;;;;;5029934;28;20184;-75
2022/12/18 08:44:39;;;;;;;37.07;14.47;;;-4.00;99.90;;;;;;5061066;28;20204;-75
2022/12/18 08:47:06;;;;;;;44.77;17.27;;;-4.10;99.90;;;;;;5032660;28;20215;-75
2022/12/18 08:49:33;;;;;;;42.27;17.67;;;-4.00;99.90;;;;;;5035860;28;20227;-75
2022/12/18 08:51:59;;;;;;;37.40;17.00;;;-4.00;99.90;;;;;;5043297;28;20252;-75
2022/12/18 08:54:25;;;;;;;41.90;17.30;;;-4.00;99.90;;;;;;5032626;28;20556;-75
2022/12/18 08:56:50;;;;;;;40.07;16.73;;;-4.00;99.90;;;;;;5025538;28;20658;-75
2022/12/18 08:59:17;;;;;;;38.27;19.60;;;-4.00;99.90;;;;;;5049159;28;20278;-75
2022/12/18 09:01:43;;;;;;;39.27;17.30;;;-3.90;99.90;;;;;;5030246;28;20249;-75
2022/12/18 09:04:09;;;;;;;41.13;18.50;;;-3.90;99.90;;;;;;5031704;28;20204;-76
2022/12/18 09:06:36;;;;;;;39.23;17.37;;;-3.80;99.90;;;;;;5027698;28;20181;-75
2022/12/18 09:09:03;;;;;;;46.80;24.57;;;-3.80;99.90;;;;;;5044975;28;20593;-80
2022/12/18 09:11:29;;;;;;;43.77;25.10;;;-3.70;99.90;;;;;;5032962;28;20188;-75
2022/12/18 09:13:56;;;;;;;42.00;23.23;;;-3.60;99.90;;;;;;5030369;28;20213;-76
2022/12/18 09:16:23;;;;;;;46.37;23.87;;;-3.50;99.90;;;;;;5047149;28;20188;-76
2022/12/18 09:18:49;;;;;;;47.73;18.37;;;-3.40;99.90;;;;;;5031785;28;20237;-75
2022/12/18 09:21:20;;;;;;;41.60;22.00;;;-3.30;99.90;;;;;;5028149;28;20188;-76
2022/12/18 09:23:50;;;;;;;33.90;19.03;;;-3.20;99.90;;;;;;5031354;28;20241;-76
2022/12/18 09:26:16;;;;;;;37.43;17.83;;;-3.20;99.90;;;;;;5046279;28;20262;-76
2022/12/18 09:28:42;;;;;;;35.73;16.60;;;-3.20;99.90;;;;;;5039743;28;20176;-76
2022/12/18 09:31:08;;;;;;;37.57;19.43;;;-3.10;99.90;;;;;;5026654;28;20191;-77
2022/12/18 09:33:35;;;;;;;44.97;21.70;;;-3.00;99.90;;;;;;5029579;28;20193;-76
2022/12/18 09:36:04;;;;;;;35.17;17.63;;;-2.90;99.90;;;;;;5047693;28;20238;-75
2022/12/18 09:38:30;;;;;;;34.47;16.10;;;-2.70;99.90;;;;;;5030310;28;20187;-77
2022/12/18 09:41:37;;;;;;;38.47;21.03;;;-2.50;99.90;;;;;;5027835;28;20187;-80
2022/12/18 09:44:19;;;;;;;38.87;20.93;;;-2.30;99.90;;;;;;5024938;28;20671;-80
2022/12/18 09:47:01;;;;;;;39.40;19.63;;;-2.20;99.90;;;;;;5013131;28;20188;-76
2022/12/18 09:49:29;;;;;;;31.83;15.03;;;-2.10;99.90;;;;;;5014335;28;20211;-75
2022/12/18 09:52:01;;;;;;;34.27;17.57;;;-2.00;99.90;;;;;;5030087;28;20184;-75
2022/12/18 09:54:38;;;;;;;31.23;16.03;;;-2.10;99.90;;;;;;5020948;28;20176;-75
2022/12/18 09:57:04;;;;;;;27.13;14.50;;;-2.10;99.90;;;;;;5031735;28;20632;-77
2022/12/18 09:59:40;;;;;;;31.27;15.33;;;-2.10;99.90;;;;;;5063030;28;20199;-75
2022/12/18 10:02:18;;;;;;;26.93;13.83;;;-2.20;99.90;;;;;;5021667;28;20188;-75
2022/12/18 10:05:05;;;;;;;22.40;10.80;;;-2.30;99.90;;;;;;5034621;28;20536;-75
2022/12/18 10:08:00;;;;;;;28.73;13.27;;;-2.40;99.90;;;;;;5031324;28;20184;-75
2022/12/18 10:10:49;;;;;;;28.67;14.90;;;-2.40;99.90;;;;;;5023147;28;20180;-75
2022/12/18 10:13:25;;;;;;;32.77;13.37;;;-2.40;99.90;;;;;;5028506;28;20212;-79
2022/12/18 10:16:04;;;;;;;30.37;15.07;;;-2.30;99.90;;;;;;5028110;28;20666;-75
2022/12/18 10:18:30;;;;;;;25.83;14.63;;;-2.10;99.90;;;;;;5017608;28;20628;-75
2022/12/18 10:21:09;;;;;;;29.97;15.83;;;-1.80;99.90;;;;;;5029152;28;20206;-77
2022/12/18 10:23:50;;;;;;;34.23;20.07;;;-1.60;99.90;;;;;;5026160;28;20256;-75
2022/12/18 10:26:16;;;;;;;31.50;19.67;;;-1.30;99.90;;;;;;5031774;28;20226;-83
2022/12/18 10:28:43;;;;;;;36.63;22.53;;;-1.00;99.90;;;;;;5060505;28;20212;-77
2022/12/18 10:31:21;;;;;;;32.83;21.43;;;-0.70;99.90;;;;;;5064697;28;20234;-76
2022/12/18 10:33:47;;;;;;;29.17;20.20;;;-0.50;99.90;;;;;;5035441;28;20184;-85
2022/12/18 10:36:13;;;;;;;35.33;21.50;;;-0.30;99.90;;;;;;5032730;28;20646;-76
2022/12/18 10:38:39;;;;;;;30.03;20.13;;;-0.20;99.90;;;;;;5034235;28;20180;-75
2022/12/18 10:41:25;;;;;;;28.73;18.40;;;-0.10;99.90;;;;;;5033511;28;20190;-79
2022/12/18 10:44:16;;;;;;;23.73;12.37;;;-0.10;99.90;;;;;;5036383;28;20214;-74
2022/12/18 10:46:43;;;;;;;22.57;11.37;;;-0.30;99.90;;;;;;5026418;28;20211;-77
2022/12/18 10:49:29;;;;;;;18.87;11.20;;;-0.30;99.90;;;;;;5026485;28;20267;-75
2022/12/18 10:52:21;;;;;;;22.37;11.40;;;-0.50;99.90;;;;;;5035875;28;20616;-77
2022/12/18 10:55:03;;;;;;;21.07;12.10;;;-0.50;99.90;;;;;;5066089;28;20187;-75
2022/12/18 10:57:34;;;;;;;21.20;11.30;;;-0.60;99.90;;;;;;5034605;28;20206;-75
2022/12/18 11:00:19;;;;;;;19.73;10.77;;;-0.70;99.90;;;;;;5028794;28;20172;-76
2022/12/18 11:02:45;;;;;;;18.73;10.40;;;-0.70;99.90;;;;;;5016833;28;20192;-77
2022/12/18 11:05:32;;;;;;;21.88;11.05;;;-0.80;99.90;;;;;;5070509;28;20210;-74
2022/12/18 11:08:04;;;;;;;22.70;13.97;;;-0.80;99.90;;;;;;5049220;28;20183;-75
2022/12/18 11:10:36;;;;;;;22.23;10.37;;;-0.90;99.90;;;;;;5039884;28;20186;-75
2022/12/18 11:13:20;;;;;;;18.33;10.10;;;-0.90;99.90;;;;;;5037588;28;20176;-76
2022/12/18 11:15:46;;;;;;;18.87;9.60;;;-0.90;99.90;;;;;;5038937;28;20554;-77
2022/12/18 11:18:31;;;;;;;15.27;9.60;;;-0.90;99.90;;;;;;5033786;28;20184;-75
2022/12/18 11:21:07;;;;;;;14.90;8.63;;;-1.10;99.90;;;;;;5047354;28;20188;-77
2022/12/18 11:23:35;;;;;;;19.57;9.43;;;-1.10;99.90;;;;;;5044394;28;20180;-75
2022/12/18 11:26:05;;;;;;;15.20;9.30;;;-1.10;99.90;;;;;;5034029;28;20263;-75
2022/12/18 11:28:44;;;;;;;15.17;8.47;;;-1.10;99.90;;;;;;5034228;28;20640;-75
2022/12/18 11:31:16;;;;;;;15.47;8.77;;;-1.10;99.90;;;;;;5061681;28;20225;-75
2022/12/18 11:33:56;;;;;;;15.57;8.63;;;-1.10;99.90;;;;;;5032595;28;20188;-75
2022/12/18 11:36:22;;;;;;;15.50;9.50;;;-1.10;99.90;;;;;;5018318;28;20177;-75
2022/12/18 11:38:51;;;;;;;16.23;9.00;;;-1.00;99.90;;;;;;5021351;28;20546;-75
2022/12/18 11:44:35;;;;;;;17.63;8.47;;;-1.10;99.90;;;;;;5047331;28;20245;-77
2022/12/18 11:47:15;;;;;;;14.77;8.33;;;-1.00;99.90;;;;;;5034867;28;20200;-75
2022/12/18 11:49:41;;;;;;;15.70;8.67;;;-1.00;99.90;;;;;;5032640;28;20211;-74
2022/12/18 11:52:15;;;;;;;17.67;9.17;;;-1.00;99.90;;;;;;5032510;28;20184;-74
2022/12/18 11:54:41;;;;;;;15.97;8.37;;;-1.00;99.90;;;;;;5031790;28;20180;-77
2022/12/18 11:57:19;;;;;;;17.60;8.63;;;-1.00;99.90;;;;;;5032834;28;20602;-75
2022/12/18 11:59:47;;;;;;;14.53;8.40;;;-1.00;99.90;;;;;;5031334;28;20363;-76
2022/12/18 12:02:33;;;;;;;14.50;8.27;;;-1.00;99.90;;;;;;5043899;28;20172;-74
2022/12/18 12:05:18;;;;;;;12.80;7.73;;;-0.90;99.90;;;;;;5032106;28;20226;-75
2022/12/18 12:08:13;;;;;;;16.37;8.13;;;-0.90;99.90;;;;;;5032564;28;20206;-76
2022/12/18 12:11:12;;;;;;;14.57;8.20;;;-0.90;99.90;;;;;;5004023;28;20253;-74
2022/12/18 12:13:53;;;;;;;14.70;7.37;;;-0.90;99.90;;;;;;5033378;28;20183;-75
2022/12/18 12:16:32;;;;;;;12.23;7.53;;;-0.90;99.90;;;;;;5025558;28;20188;-79
2022/12/18 12:19:03;;;;;;;13.77;7.20;;;-1.00;99.90;;;;;;5021607;28;20186;-81
2022/12/18 12:21:40;;;;;;;12.47;7.50;;;-0.90;99.90;;;;;;5027320;28;20190;-76
2022/12/18 12:24:13;;;;;;;19.90;7.90;;;-0.90;99.90;;;;;;5030331;28;20196;-77
2022/12/18 12:26:52;;;;;;;14.30;7.73;;;-0.90;99.90;;;;;;5027466;28;20204;-75
2022/12/18 12:29:21;;;;;;;17.80;6.97;;;-0.90;99.90;;;;;;5031718;28;20344;-76
2022/12/18 12:32:11;;;;;;;12.73;7.73;;;-0.80;99.90;;;;;;5025289;28;20180;-77
2022/12/18 12:34:51;;;;;;;13.23;7.30;;;-0.80;99.90;;;;;;5026413;28;20194;-76
2022/12/18 12:37:28;;;;;;;12.90;6.67;;;-0.80;99.90;;;;;;5019013;28;20254;-75
2022/12/18 12:39:54;;;;;;;12.60;7.27;;;-0.80;99.90;;;;;;5046312;28;20260;-77
2022/12/18 12:45:22;;;;;;;14.40;6.77;;;-0.70;99.90;;;;;;5031096;28;20234;-76
2022/12/18 12:47:49;;;;;;;11.77;6.53;;;-0.70;99.90;;;;;;5031326;28;20199;-76
2022/12/18 12:50:18;;;;;;;12.50;7.07;;;-0.70;99.90;;;;;;5031361;28;20232;-75
2022/12/18 12:52:56;;;;;;;15.07;6.87;;;-0.60;99.90;;;;;;5045290;28;20211;-78
2022/12/18 12:55:27;;;;;;;12.43;6.63;;;-0.60;99.90;;;;;;5027260;28;20209;-76
2022/12/18 12:57:59;;;;;;;13.37;7.80;;;-0.60;99.90;;;;;;5030908;28;20183;-76